Alpine, New York
Current Conditions -  °F | °C
As of 4:53 AM on Wednesday 22 Oct 2014 (Local Time) from KELM Reporting Station
Haze Haze  
Wind Chill: 45°   Ceiling: 600
Heat Index: 48°   Visibility: 6mi
Dew Point: 46°   Wind: 6mph
Humidity: 93%   Direction: 40°NE
Pressure: 30.03"   Gusts: NA
Location:  42.31°N, 76.72°W
Report Text: KELM 220853Z AUTO 04005KT 6SM BR OVC006 09/08 A3003 RMK AO2 SLP170 T00890078 53010
Loading
Personal Weather Stations






























Interactive Weather Map
Tropical Storm Tracking
New forecast layout! Learn more

10-Day Weather Forecast

Advertisements
Track Severe Weather on mobile